sensor_id;sensor_type;location;lat;lon;timestamp;P1;durP1;ratioP1;P2;durP2;ratioP2
26656;SDS011;14279;50.010;8.260;2023-06-10T00:02:14;14.13;;;6.80;;
26656;SDS011;14279;50.010;8.260;2023-06-10T00:04:41;11.57;;;7.10;;
26656;SDS011;14279;50.010;8.260;2023-06-10T00:07:07;9.07;;;6.47;;
26656;SDS011;14279;50.010;8.260;2023-06-10T00:09:36;9.53;;;6.40;;
26656;SDS011;14279;50.010;8.260;2023-06-10T00:12:03;11.60;;;7.07;;
26656;SDS011;14279;50.010;8.260;2023-06-10T00:14:29;13.90;;;6.47;;
26656;SDS011;14279;50.010;8.260;2023-06-10T00:16:55;12.50;;;6.17;;
26656;SDS011;14279;50.010;8.260;2023-06-10T00:19:20;14.80;;;6.27;;
26656;SDS011;14279;50.010;8.260;2023-06-10T00:21:50;7.97;;;6.43;;
26656;SDS011;14279;50.010;8.260;2023-06-10T00:24:17;8.83;;;6.50;;
26656;SDS011;14279;50.010;8.260;2023-06-10T00:26:43;7.00;;;6.30;;
26656;SDS011;14279;50.010;8.260;2023-06-10T00:29:08;11.63;;;6.77;;
26656;SDS011;14279;50.010;8.260;2023-06-10T00:31:34;11.00;;;6.60;;
26656;SDS011;14279;50.010;8.260;2023-06-10T00:34:00;12.47;;;6.80;;
26656;SDS011;14279;50.010;8.260;2023-06-10T00:36:25;16.13;;;7.30;;
26656;SDS011;14279;50.010;8.260;2023-06-10T00:38:51;9.10;;;6.40;;
26656;SDS011;14279;50.010;8.260;2023-06-10T00:41:16;11.00;;;7.00;;
26656;SDS011;14279;50.010;8.260;2023-06-10T00:43:42;9.53;;;6.00;;
26656;SDS011;14279;50.010;8.260;2023-06-10T00:46:07;7.60;;;6.47;;
26656;SDS011;14279;50.010;8.260;2023-06-10T00:48:33;9.73;;;6.07;;
26656;SDS011;14279;50.010;8.260;2023-06-10T00:50:58;8.90;;;7.10;;
26656;SDS011;14279;50.010;8.260;2023-06-10T00:53:25;16.53;;;6.70;;
26656;SDS011;14279;50.010;8.260;2023-06-10T00:55:52;12.70;;;6.20;;
26656;SDS011;14279;50.010;8.260;2023-06-10T00:58:18;7.80;;;6.20;;
26656;SDS011;14279;50.010;8.260;2023-06-10T01:00:44;9.93;;;5.90;;
26656;SDS011;14279;50.010;8.260;2023-06-10T01:03:10;9.20;;;6.10;;
26656;SDS011;14279;50.010;8.260;2023-06-10T01:05:37;10.27;;;6.73;;
26656;SDS011;14279;50.010;8.260;2023-06-10T01:08:07;9.70;;;6.70;;
26656;SDS011;14279;50.010;8.260;2023-06-10T01:10:43;7.97;;;5.70;;
26656;SDS011;14279;50.010;8.260;2023-06-10T01:13:14;7.43;;;6.30;;
26656;SDS011;14279;50.010;8.260;2023-06-10T01:15:40;7.63;;;5.93;;
26656;SDS011;14279;50.010;8.260;2023-06-10T01:18:07;16.10;;;7.10;;
26656;SDS011;14279;50.010;8.260;2023-06-10T01:20:40;9.53;;;6.10;;
26656;SDS011;14279;50.010;8.260;2023-06-10T01:23:08;9.90;;;5.93;;
26656;SDS011;14279;50.010;8.260;2023-06-10T01:25:39;10.57;;;6.47;;
26656;SDS011;14279;50.010;8.260;2023-06-10T01:28:27;10.50;;;6.40;;
26656;SDS011;14279;50.010;8.260;2023-06-10T01:30:59;9.53;;;6.93;;
26656;SDS011;14279;50.010;8.260;2023-06-10T01:33:37;7.90;;;6.27;;
26656;SDS011;14279;50.010;8.260;2023-06-10T01:36:07;16.83;;;6.30;;
26656;SDS011;14279;50.010;8.260;2023-06-10T01:38:33;9.30;;;5.80;;
26656;SDS011;14279;50.010;8.260;2023-06-10T01:41:04;10.93;;;6.03;;
26656;SDS011;14279;50.010;8.260;2023-06-10T01:43:34;7.57;;;5.90;;
26656;SDS011;14279;50.010;8.260;2023-06-10T01:46:02;9.93;;;6.13;;
26656;SDS011;14279;50.010;8.260;2023-06-10T01:48:27;8.27;;;5.93;;
26656;SDS011;14279;50.010;8.260;2023-06-10T01:50:52;10.10;;;6.77;;
26656;SDS011;14279;50.010;8.260;2023-06-10T01:53:18;12.10;;;6.10;;
26656;SDS011;14279;50.010;8.260;2023-06-10T01:55:43;9.77;;;6.00;;
26656;SDS011;14279;50.010;8.260;2023-06-10T01:58:09;6.43;;;5.80;;
26656;SDS011;14279;50.010;8.260;2023-06-10T02:00:34;12.40;;;5.70;;
26656;SDS011;14279;50.010;8.260;2023-06-10T02:02:59;8.53;;;5.93;;
26656;SDS011;14279;50.010;8.260;2023-06-10T02:05:24;11.90;;;6.20;;
26656;SDS011;14279;50.010;8.260;2023-06-10T02:07:50;9.17;;;6.23;;
26656;SDS011;14279;50.010;8.260;2023-06-10T02:10:15;10.53;;;6.30;;
26656;SDS011;14279;50.010;8.260;2023-06-10T02:12:41;11.57;;;6.70;;
26656;SDS011;14279;50.010;8.260;2023-06-10T02:15:06;8.93;;;5.87;;
26656;SDS011;14279;50.010;8.260;2023-06-10T02:17:31;12.77;;;6.57;;
26656;SDS011;14279;50.010;8.260;2023-06-10T02:19:57;10.77;;;6.20;;
26656;SDS011;14279;50.010;8.260;2023-06-10T02:22:24;7.37;;;6.20;;
26656;SDS011;14279;50.010;8.260;2023-06-10T02:24:50;9.50;;;5.97;;
26656;SDS011;14279;50.010;8.260;2023-06-10T02:27:15;10.60;;;5.83;;
26656;SDS011;14279;50.010;8.260;2023-06-10T02:29:41;11.37;;;5.17;;
26656;SDS011;14279;50.010;8.260;2023-06-10T02:32:08;8.30;;;6.03;;
26656;SDS011;14279;50.010;8.260;2023-06-10T02:34:33;9.97;;;6.30;;
26656;SDS011;14279;50.010;8.260;2023-06-10T02:36:59;7.63;;;5.33;;
26656;SDS011;14279;50.010;8.260;2023-06-10T02:39:25;9.10;;;5.90;;
26656;SDS011;14279;50.010;8.260;2023-06-10T02:41:50;8.30;;;5.50;;
26656;SDS011;14279;50.010;8.260;2023-06-10T02:44:17;7.13;;;5.63;;
26656;SDS011;14279;50.010;8.260;2023-06-10T02:46:43;10.80;;;5.53;;
26656;SDS011;14279;50.010;8.260;2023-06-10T02:49:08;7.90;;;6.13;;
26656;SDS011;14279;50.010;8.260;2023-06-10T02:51:33;7.50;;;5.90;;
26656;SDS011;14279;50.010;8.260;2023-06-10T02:53:58;7.77;;;5.70;;
26656;SDS011;14279;50.010;8.260;2023-06-10T02:56:24;7.40;;;5.53;;
26656;SDS011;14279;50.010;8.260;2023-06-10T02:58:50;8.73;;;6.37;;
26656;SDS011;14279;50.010;8.260;2023-06-10T03:01:16;9.30;;;6.00;;
26656;SDS011;14279;50.010;8.260;2023-06-10T03:03:43;6.90;;;5.43;;
26656;SDS011;14279;50.010;8.260;2023-06-10T03:06:12;11.60;;;6.00;;
26656;SDS011;14279;50.010;8.260;2023-06-10T03:08:38;10.10;;;5.60;;
26656;SDS011;14279;50.010;8.260;2023-06-10T03:11:04;6.70;;;5.67;;
26656;SDS011;14279;50.010;8.260;2023-06-10T03:13:29;7.57;;;5.10;;
26656;SDS011;14279;50.010;8.260;2023-06-10T03:15:54;10.67;;;5.77;;
26656;SDS011;14279;50.010;8.260;2023-06-10T03:18:20;13.40;;;5.83;;
26656;SDS011;14279;50.010;8.260;2023-06-10T03:20:45;6.33;;;5.10;;
26656;SDS011;14279;50.010;8.260;2023-06-10T03:23:10;7.07;;;5.90;;
26656;SDS011;14279;50.010;8.260;2023-06-10T03:25:36;7.87;;;5.93;;
26656;SDS011;14279;50.010;8.260;2023-06-10T03:28:01;10.60;;;5.40;;
26656;SDS011;14279;50.010;8.260;2023-06-10T03:30:29;7.20;;;5.10;;
26656;SDS011;14279;50.010;8.260;2023-06-10T03:32:55;7.60;;;6.10;;
26656;SDS011;14279;50.010;8.260;2023-06-10T03:35:20;6.60;;;5.37;;
26656;SDS011;14279;50.010;8.260;2023-06-10T03:37:45;9.00;;;5.40;;
26656;SDS011;14279;50.010;8.260;2023-06-10T03:40:11;8.10;;;6.13;;
26656;SDS011;14279;50.010;8.260;2023-06-10T03:42:36;10.47;;;6.40;;
26656;SDS011;14279;50.010;8.260;2023-06-10T03:45:02;7.23;;;5.70;;
26656;SDS011;14279;50.010;8.260;2023-06-10T03:47:32;9.73;;;5.70;;
26656;SDS011;14279;50.010;8.260;2023-06-10T03:49:58;9.17;;;6.13;;
26656;SDS011;14279;50.010;8.260;2023-06-10T03:52:23;6.13;;;5.50;;
26656;SDS011;14279;50.010;8.260;2023-06-10T03:54:49;10.43;;;5.53;;
26656;SDS011;14279;50.010;8.260;2023-06-10T03:57:14;9.00;;;5.90;;
26656;SDS011;14279;50.010;8.260;2023-06-10T03:59:39;8.13;;;5.90;;
26656;SDS011;14279;50.010;8.260;2023-06-10T04:02:04;10.80;;;6.43;;
26656;SDS011;14279;50.010;8.260;2023-06-10T04:04:31;8.90;;;6.43;;
26656;SDS011;14279;50.010;8.260;2023-06-10T04:06:57;9.03;;;5.83;;
26656;SDS011;14279;50.010;8.260;2023-06-10T04:09:22;10.37;;;6.30;;
26656;SDS011;14279;50.010;8.260;2023-06-10T04:11:47;11.07;;;6.30;;
26656;SDS011;14279;50.010;8.260;2023-06-10T04:14:13;9.30;;;6.50;;
26656;SDS011;14279;50.010;8.260;2023-06-10T04:16:38;11.80;;;6.77;;
26656;SDS011;14279;50.010;8.260;2023-06-10T04:19:03;8.30;;;6.10;;
26656;SDS011;14279;50.010;8.260;2023-06-10T04:21:29;8.60;;;5.70;;
26656;SDS011;14279;50.010;8.260;2023-06-10T04:23:54;15.60;;;6.40;;
26656;SDS011;14279;50.010;8.260;2023-06-10T04:26:19;9.77;;;5.83;;
26656;SDS011;14279;50.010;8.260;2023-06-10T04:28:44;9.10;;;5.63;;
26656;SDS011;14279;50.010;8.260;2023-06-10T04:31:10;10.40;;;5.30;;
26656;SDS011;14279;50.010;8.260;2023-06-10T04:33:35;8.47;;;5.63;;
26656;SDS011;14279;50.010;8.260;2023-06-10T04:36:01;7.07;;;5.47;;
26656;SDS011;14279;50.010;8.260;2023-06-10T04:38:27;8.00;;;5.97;;
26656;SDS011;14279;50.010;8.260;2023-06-10T04:40:53;7.57;;;5.73;;
26656;SDS011;14279;50.010;8.260;2023-06-10T04:43:18;10.20;;;6.10;;
26656;SDS011;14279;50.010;8.260;2023-06-10T04:45:43;9.00;;;5.87;;
26656;SDS011;14279;50.010;8.260;2023-06-10T04:48:10;8.30;;;5.77;;
26656;SDS011;14279;50.010;8.260;2023-06-10T04:50:36;8.50;;;6.20;;
26656;SDS011;14279;50.010;8.260;2023-06-10T04:53:01;7.73;;;5.47;;
26656;SDS011;14279;50.010;8.260;2023-06-10T04:55:26;7.17;;;4.93;;
26656;SDS011;14279;50.010;8.260;2023-06-10T04:57:52;8.00;;;5.60;;
26656;SDS011;14279;50.010;8.260;2023-06-10T05:00:17;7.50;;;5.40;;
26656;SDS011;14279;50.010;8.260;2023-06-10T05:02:42;8.97;;;5.50;;
26656;SDS011;14279;50.010;8.260;2023-06-10T05:05:08;5.93;;;5.33;;
26656;SDS011;14279;50.010;8.260;2023-06-10T05:07:33;11.47;;;4.93;;
26656;SDS011;14279;50.010;8.260;2023-06-10T05:09:58;12.23;;;5.20;;
26656;SDS011;14279;50.010;8.260;2023-06-10T05:12:23;8.20;;;5.03;;
26656;SDS011;14279;50.010;8.260;2023-06-10T05:14:49;8.00;;;5.50;;
26656;SDS011;14279;50.010;8.260;2023-06-10T05:17:14;10.13;;;5.70;;
26656;SDS011;14279;50.010;8.260;2023-06-10T05:19:40;11.27;;;5.60;;
26656;SDS011;14279;50.010;8.260;2023-06-10T05:22:06;7.63;;;5.10;;
26656;SDS011;14279;50.010;8.260;2023-06-10T05:24:31;11.57;;;6.17;;
26656;SDS011;14279;50.010;8.260;2023-06-10T05:26:56;9.03;;;5.70;;
26656;SDS011;14279;50.010;8.260;2023-06-10T05:29:22;13.77;;;5.27;;
26656;SDS011;14279;50.010;8.260;2023-06-10T05:31:47;8.27;;;5.10;;
26656;SDS011;14279;50.010;8.260;2023-06-10T05:34:12;10.57;;;5.90;;
26656;SDS011;14279;50.010;8.260;2023-06-10T05:36:38;8.63;;;6.17;;
26656;SDS011;14279;50.010;8.260;2023-06-10T05:39:03;13.60;;;6.03;;
26656;SDS011;14279;50.010;8.260;2023-06-10T05:41:29;10.20;;;6.87;;
26656;SDS011;14279;50.010;8.260;2023-06-10T05:43:54;8.80;;;5.90;;
26656;SDS011;14279;50.010;8.260;2023-06-10T05:46:19;10.53;;;6.70;;
26656;SDS011;14279;50.010;8.260;2023-06-10T05:48:45;10.30;;;5.93;;
26656;SDS011;14279;50.010;8.260;2023-06-10T05:51:10;10.03;;;5.73;;
26656;SDS011;14279;50.010;8.260;2023-06-10T05:53:36;10.20;;;5.83;;
26656;SDS011;14279;50.010;8.260;2023-06-10T05:56:01;6.07;;;5.10;;
26656;SDS011;14279;50.010;8.260;2023-06-10T05:58:26;9.90;;;5.33;;
26656;SDS011;14279;50.010;8.260;2023-06-10T06:00:52;6.47;;;4.87;;
26656;SDS011;14279;50.010;8.260;2023-06-10T06:03:17;7.20;;;5.10;;
26656;SDS011;14279;50.010;8.260;2023-06-10T06:05:42;10.30;;;4.50;;
26656;SDS011;14279;50.010;8.260;2023-06-10T06:08:08;7.77;;;6.00;;
26656;SDS011;14279;50.010;8.260;2023-06-10T06:10:33;7.90;;;5.20;;
26656;SDS011;14279;50.010;8.260;2023-06-10T06:12:59;8.20;;;5.50;;
26656;SDS011;14279;50.010;8.260;2023-06-10T06:15:25;10.80;;;5.00;;
26656;SDS011;14279;50.010;8.260;2023-06-10T06:17:50;10.30;;;5.27;;
26656;SDS011;14279;50.010;8.260;2023-06-10T06:20:19;10.73;;;5.77;;
26656;SDS011;14279;50.010;8.260;2023-06-10T06:22:45;6.20;;;4.23;;
26656;SDS011;14279;50.010;8.260;2023-06-10T06:25:10;6.70;;;5.07;;
26656;SDS011;14279;50.010;8.260;2023-06-10T06:27:36;16.90;;;5.43;;
26656;SDS011;14279;50.010;8.260;2023-06-10T06:30:01;5.90;;;5.27;;
26656;SDS011;14279;50.010;8.260;2023-06-10T06:32:26;8.07;;;5.90;;
26656;SDS011;14279;50.010;8.260;2023-06-10T06:34:52;8.10;;;5.13;;
26656;SDS011;14279;50.010;8.260;2023-06-10T06:37:19;7.30;;;5.23;;
26656;SDS011;14279;50.010;8.260;2023-06-10T06:39:53;8.97;;;4.90;;
26656;SDS011;14279;50.010;8.260;2023-06-10T06:42:19;7.60;;;4.90;;
26656;SDS011;14279;50.010;8.260;2023-06-10T06:44:45;7.30;;;5.30;;
26656;SDS011;14279;50.010;8.260;2023-06-10T06:47:11;9.70;;;5.37;;
26656;SDS011;14279;50.010;8.260;2023-06-10T06:49:37;10.93;;;6.07;;
26656;SDS011;14279;50.010;8.260;2023-06-10T06:52:02;7.30;;;5.03;;
26656;SDS011;14279;50.010;8.260;2023-06-10T06:54:28;7.97;;;5.53;;
26656;SDS011;14279;50.010;8.260;2023-06-10T06:56:54;8.80;;;5.60;;
26656;SDS011;14279;50.010;8.260;2023-06-10T06:59:19;9.03;;;4.90;;
26656;SDS011;14279;50.010;8.260;2023-06-10T07:01:45;10.97;;;5.30;;
26656;SDS011;14279;50.010;8.260;2023-06-10T07:04:11;11.90;;;5.50;;
26656;SDS011;14279;50.010;8.260;2023-06-10T07:06:36;6.97;;;5.23;;
26656;SDS011;14279;50.010;8.260;2023-06-10T07:09:02;6.80;;;5.97;;
26656;SDS011;14279;50.010;8.260;2023-06-10T07:11:29;7.80;;;5.30;;
26656;SDS011;14279;50.010;8.260;2023-06-10T07:13:55;8.07;;;5.30;;
26656;SDS011;14279;50.010;8.260;2023-06-10T07:16:20;7.77;;;5.80;;
26656;SDS011;14279;50.010;8.260;2023-06-10T07:18:46;8.10;;;5.40;;
26656;SDS011;14279;50.010;8.260;2023-06-10T07:21:11;11.60;;;5.10;;
26656;SDS011;14279;50.010;8.260;2023-06-10T07:23:37;12.03;;;5.60;;
26656;SDS011;14279;50.010;8.260;2023-06-10T07:26:02;12.20;;;5.60;;
26656;SDS011;14279;50.010;8.260;2023-06-10T07:28:27;8.87;;;5.40;;
26656;SDS011;14279;50.010;8.260;2023-06-10T07:30:53;6.70;;;5.30;;
26656;SDS011;14279;50.010;8.260;2023-06-10T07:33:18;11.03;;;6.13;;
26656;SDS011;14279;50.010;8.260;2023-06-10T07:35:43;9.67;;;5.43;;
26656;SDS011;14279;50.010;8.260;2023-06-10T07:38:09;9.50;;;5.83;;
26656;SDS011;14279;50.010;8.260;2023-06-10T07:40:34;8.73;;;5.50;;
26656;SDS011;14279;50.010;8.260;2023-06-10T07:42:59;11.00;;;4.87;;
26656;SDS011;14279;50.010;8.260;2023-06-10T07:45:24;8.33;;;5.60;;
26656;SDS011;14279;50.010;8.260;2023-06-10T07:47:50;12.80;;;5.37;;
26656;SDS011;14279;50.010;8.260;2023-06-10T07:50:15;5.13;;;4.60;;
26656;SDS011;14279;50.010;8.260;2023-06-10T07:52:41;10.23;;;5.60;;
26656;SDS011;14279;50.010;8.260;2023-06-10T07:55:06;8.17;;;4.93;;
26656;SDS011;14279;50.010;8.260;2023-06-10T07:57:32;7.97;;;5.30;;
26656;SDS011;14279;50.010;8.260;2023-06-10T08:00:01;6.50;;;4.93;;
26656;SDS011;14279;50.010;8.260;2023-06-10T08:02:29;8.20;;;5.47;;
26656;SDS011;14279;50.010;8.260;2023-06-10T08:04:54;7.80;;;5.70;;
26656;SDS011;14279;50.010;8.260;2023-06-10T08:07:19;8.27;;;5.00;;
26656;SDS011;14279;50.010;8.260;2023-06-10T08:09:45;6.30;;;5.20;;
26656;SDS011;14279;50.010;8.260;2023-06-10T08:12:10;7.23;;;5.60;;
26656;SDS011;14279;50.010;8.260;2023-06-10T08:14:35;9.13;;;5.73;;
26656;SDS011;14279;50.010;8.260;2023-06-10T08:17:01;8.23;;;5.40;;
26656;SDS011;14279;50.010;8.260;2023-06-10T08:19:30;8.80;;;5.40;;
26656;SDS011;14279;50.010;8.260;2023-06-10T08:21:55;7.17;;;5.80;;
26656;SDS011;14279;50.010;8.260;2023-06-10T08:24:21;10.77;;;5.80;;
26656;SDS011;14279;50.010;8.260;2023-06-10T08:26:46;9.90;;;5.70;;
26656;SDS011;14279;50.010;8.260;2023-06-10T08:29:11;7.07;;;5.50;;
26656;SDS011;14279;50.010;8.260;2023-06-10T08:31:37;8.17;;;5.30;;
26656;SDS011;14279;50.010;8.260;2023-06-10T08:34:05;15.13;;;6.60;;
26656;SDS011;14279;50.010;8.260;2023-06-10T08:36:31;7.30;;;5.60;;
26656;SDS011;14279;50.010;8.260;2023-06-10T08:38:56;10.73;;;6.27;;
26656;SDS011;14279;50.010;8.260;2023-06-10T08:41:21;7.23;;;5.87;;
26656;SDS011;14279;50.010;8.260;2023-06-10T08:44:15;7.70;;;6.13;;
26656;SDS011;14279;50.010;8.260;2023-06-10T08:46:44;9.57;;;5.37;;
26656;SDS011;14279;50.010;8.260;2023-06-10T08:49:14;6.23;;;5.63;;
26656;SDS011;14279;50.010;8.260;2023-06-10T08:51:43;9.60;;;5.57;;
26656;SDS011;14279;50.010;8.260;2023-06-10T08:54:14;11.03;;;5.03;;
26656;SDS011;14279;50.010;8.260;2023-06-10T08:56:44;7.60;;;5.33;;
26656;SDS011;14279;50.010;8.260;2023-06-10T08:59:13;10.50;;;6.20;;
26656;SDS011;14279;50.010;8.260;2023-06-10T09:01:38;12.43;;;6.00;;
26656;SDS011;14279;50.010;8.260;2023-06-10T09:04:04;9.17;;;6.07;;
26656;SDS011;14279;50.010;8.260;2023-06-10T09:06:30;7.63;;;5.37;;
26656;SDS011;14279;50.010;8.260;2023-06-10T09:08:58;8.57;;;5.10;;
26656;SDS011;14279;50.010;8.260;2023-06-10T09:11:24;12.23;;;5.70;;
26656;SDS011;14279;50.010;8.260;2023-06-10T09:13:50;6.23;;;5.27;;
26656;SDS011;14279;50.010;8.260;2023-06-10T09:16:15;6.77;;;5.87;;
26656;SDS011;14279;50.010;8.260;2023-06-10T09:18:41;9.53;;;5.53;;
26656;SDS011;14279;50.010;8.260;2023-06-10T09:21:07;6.63;;;5.30;;
26656;SDS011;14279;50.010;8.260;2023-06-10T09:23:32;5.37;;;4.87;;
26656;SDS011;14279;50.010;8.260;2023-06-10T09:25:58;15.70;;;6.10;;
26656;SDS011;14279;50.010;8.260;2023-06-10T09:28:24;7.23;;;5.80;;
26656;SDS011;14279;50.010;8.260;2023-06-10T09:30:49;9.13;;;5.27;;
26656;SDS011;14279;50.010;8.260;2023-06-10T09:33:25;8.27;;;5.47;;
26656;SDS011;14279;50.010;8.260;2023-06-10T09:35:51;23.73;;;6.37;;
26656;SDS011;14279;50.010;8.260;2023-06-10T09:38:20;6.93;;;5.93;;
26656;SDS011;14279;50.010;8.260;2023-06-10T09:43:17;12.23;;;5.60;;
26656;SDS011;14279;50.010;8.260;2023-06-10T09:45:43;7.50;;;5.90;;
26656;SDS011;14279;50.010;8.260;2023-06-10T09:48:09;13.17;;;5.50;;
26656;SDS011;14279;50.010;8.260;2023-06-10T09:50:34;12.00;;;5.57;;
26656;SDS011;14279;50.010;8.260;2023-06-10T09:53:00;9.10;;;5.33;;
26656;SDS011;14279;50.010;8.260;2023-06-10T09:55:27;11.23;;;4.77;;
26656;SDS011;14279;50.010;8.260;2023-06-10T09:57:53;11.53;;;5.67;;
26656;SDS011;14279;50.010;8.260;2023-06-10T10:00:19;6.27;;;5.20;;
26656;SDS011;14279;50.010;8.260;2023-06-10T10:02:47;5.93;;;5.33;;
26656;SDS011;14279;50.010;8.260;2023-06-10T10:05:17;11.53;;;5.47;;
26656;SDS011;14279;50.010;8.260;2023-06-10T10:07:44;9.40;;;5.80;;
26656;SDS011;14279;50.010;8.260;2023-06-10T10:10:10;6.30;;;5.67;;
26656;SDS011;14279;50.010;8.260;2023-06-10T10:12:37;8.80;;;5.20;;
26656;SDS011;14279;50.010;8.260;2023-06-10T10:15:05;10.77;;;5.10;;
26656;SDS011;14279;50.010;8.260;2023-06-10T10:17:33;7.70;;;5.30;;
26656;SDS011;14279;50.010;8.260;2023-06-10T10:20:03;14.80;;;5.93;;
26656;SDS011;14279;50.010;8.260;2023-06-10T10:22:38;10.40;;;5.67;;
26656;SDS011;14279;50.010;8.260;2023-06-10T10:25:08;11.63;;;5.97;;
26656;SDS011;14279;50.010;8.260;2023-06-10T10:27:40;8.00;;;5.17;;
26656;SDS011;14279;50.010;8.260;2023-06-10T10:30:14;8.10;;;4.57;;
26656;SDS011;14279;50.010;8.260;2023-06-10T10:32:56;7.83;;;5.40;;
26656;SDS011;14279;50.010;8.260;2023-06-10T10:35:24;6.40;;;5.17;;
26656;SDS011;14279;50.010;8.260;2023-06-10T10:37:51;6.53;;;5.60;;
26656;SDS011;14279;50.010;8.260;2023-06-10T10:40:17;6.90;;;5.50;;
26656;SDS011;14279;50.010;8.260;2023-06-10T10:42:49;7.30;;;5.50;;
26656;SDS011;14279;50.010;8.260;2023-06-10T10:45:15;6.60;;;5.27;;
26656;SDS011;14279;50.010;8.260;2023-06-10T10:47:41;9.70;;;5.20;;
26656;SDS011;14279;50.010;8.260;2023-06-10T10:50:17;8.30;;;5.83;;
26656;SDS011;14279;50.010;8.260;2023-06-10T10:52:53;6.20;;;5.10;;
26656;SDS011;14279;50.010;8.260;2023-06-10T10:55:24;6.30;;;5.10;;
26656;SDS011;14279;50.010;8.260;2023-06-10T10:58:04;5.70;;;5.07;;
26656;SDS011;14279;50.010;8.260;2023-06-10T11:00:34;17.13;;;5.80;;
26656;SDS011;14279;50.010;8.260;2023-06-10T11:03:12;6.70;;;5.10;;
26656;SDS011;14279;50.010;8.260;2023-06-10T11:05:39;5.20;;;4.70;;
26656;SDS011;14279;50.010;8.260;2023-06-10T11:08:12;5.03;;;4.50;;
26656;SDS011;14279;50.010;8.260;2023-06-10T11:10:50;8.07;;;5.13;;
26656;SDS011;14279;50.010;8.260;2023-06-10T11:13:21;8.87;;;5.30;;
26656;SDS011;14279;50.010;8.260;2023-06-10T11:15:47;5.60;;;4.50;;
26656;SDS011;14279;50.010;8.260;2023-06-10T11:18:23;13.73;;;4.70;;
26656;SDS011;14279;50.010;8.260;2023-06-10T11:20:52;9.53;;;4.77;;
26656;SDS011;14279;50.010;8.260;2023-06-10T11:31:31;7.87;;;5.37;;
26656;SDS011;14279;50.010;8.260;2023-06-10T11:33:58;9.50;;;5.30;;
26656;SDS011;14279;50.010;8.260;2023-06-10T11:36:25;5.90;;;4.10;;
26656;SDS011;14279;50.010;8.260;2023-06-10T11:38:58;10.43;;;5.00;;
26656;SDS011;14279;50.010;8.260;2023-06-10T11:41:25;5.63;;;5.00;;
26656;SDS011;14279;50.010;8.260;2023-06-10T11:43:51;15.53;;;5.10;;
26656;SDS011;14279;50.010;8.260;2023-06-10T11:46:17;6.93;;;4.50;;
26656;SDS011;14279;50.010;8.260;2023-06-10T11:48:49;6.90;;;5.27;;
26656;SDS011;14279;50.010;8.260;2023-06-10T11:51:18;7.20;;;4.50;;
26656;SDS011;14279;50.010;8.260;2023-06-10T11:53:44;6.53;;;5.00;;
26656;SDS011;14279;50.010;8.260;2023-06-10T11:56:13;5.30;;;4.33;;
26656;SDS011;14279;50.010;8.260;2023-06-10T11:58:39;9.03;;;5.03;;
26656;SDS011;14279;50.010;8.260;2023-06-10T12:01:10;9.30;;;4.73;;
26656;SDS011;14279;50.010;8.260;2023-06-10T12:03:38;9.37;;;4.40;;
26656;SDS011;14279;50.010;8.260;2023-06-10T12:06:04;4.40;;;4.00;;
26656;SDS011;14279;50.010;8.260;2023-06-10T12:08:31;4.13;;;3.73;;
26656;SDS011;14279;50.010;8.260;2023-06-10T12:10:57;6.80;;;4.10;;
26656;SDS011;14279;50.010;8.260;2023-06-10T12:13:23;9.20;;;4.13;;
26656;SDS011;14279;50.010;8.260;2023-06-10T12:15:49;5.47;;;4.53;;
26656;SDS011;14279;50.010;8.260;2023-06-10T12:20:44;11.60;;;4.30;;
26656;SDS011;14279;50.010;8.260;2023-06-10T12:23:10;5.83;;;4.10;;
26656;SDS011;14279;50.010;8.260;2023-06-10T12:25:36;7.73;;;3.90;;
26656;SDS011;14279;50.010;8.260;2023-06-10T12:28:02;7.90;;;4.30;;
26656;SDS011;14279;50.010;8.260;2023-06-10T12:30:28;9.23;;;4.17;;
26656;SDS011;14279;50.010;8.260;2023-06-10T12:32:53;9.10;;;3.73;;
26656;SDS011;14279;50.010;8.260;2023-06-10T12:35:21;4.63;;;3.73;;
26656;SDS011;14279;50.010;8.260;2023-06-10T12:37:56;9.67;;;3.77;;
26656;SDS011;14279;50.010;8.260;2023-06-10T12:40:37;6.03;;;4.20;;
26656;SDS011;14279;50.010;8.260;2023-06-10T12:43:05;9.53;;;3.77;;
26656;SDS011;14279;50.010;8.260;2023-06-10T12:45:31;6.33;;;4.30;;
26656;SDS011;14279;50.010;8.260;2023-06-10T12:48:07;8.30;;;3.90;;
26656;SDS011;14279;50.010;8.260;2023-06-10T12:50:34;6.80;;;3.20;;
26656;SDS011;14279;50.010;8.260;2023-06-10T12:53:02;4.57;;;3.97;;
26656;SDS011;14279;50.010;8.260;2023-06-10T12:55:27;3.73;;;3.43;;
26656;SDS011;14279;50.010;8.260;2023-06-10T12:57:53;8.73;;;3.70;;
26656;SDS011;14279;50.010;8.260;2023-06-10T13:00:20;5.63;;;3.40;;
26656;SDS011;14279;50.010;8.260;2023-06-10T13:02:45;5.23;;;3.97;;
26656;SDS011;14279;50.010;8.260;2023-06-10T13:05:10;5.83;;;3.63;;
26656;SDS011;14279;50.010;8.260;2023-06-10T13:07:36;7.10;;;4.07;;
26656;SDS011;14279;50.010;8.260;2023-06-10T13:10:01;7.60;;;3.67;;
26656;SDS011;14279;50.010;8.260;2023-06-10T13:12:27;5.90;;;4.07;;
26656;SDS011;14279;50.010;8.260;2023-06-10T13:14:55;3.67;;;3.37;;
26656;SDS011;14279;50.010;8.260;2023-06-10T13:17:21;5.33;;;3.90;;
26656;SDS011;14279;50.010;8.260;2023-06-10T13:19:46;5.07;;;3.67;;
26656;SDS011;14279;50.010;8.260;2023-06-10T13:22:11;8.33;;;4.07;;
26656;SDS011;14279;50.010;8.260;2023-06-10T13:24:38;7.30;;;3.97;;
26656;SDS011;14279;50.010;8.260;2023-06-10T13:27:04;4.00;;;3.60;;
26656;SDS011;14279;50.010;8.260;2023-06-10T13:29:30;7.27;;;3.67;;
26656;SDS011;14279;50.010;8.260;2023-06-10T13:31:56;15.97;;;4.10;;
26656;SDS011;14279;50.010;8.260;2023-06-10T13:34:21;6.03;;;3.73;;
26656;SDS011;14279;50.010;8.260;2023-06-10T13:36:46;4.40;;;3.77;;
26656;SDS011;14279;50.010;8.260;2023-06-10T13:39:11;7.20;;;3.93;;
26656;SDS011;14279;50.010;8.260;2023-06-10T13:41:38;6.73;;;3.93;;
26656;SDS011;14279;50.010;8.260;2023-06-10T13:44:04;6.00;;;3.97;;
26656;SDS011;14279;50.010;8.260;2023-06-10T13:46:31;4.47;;;3.80;;
26656;SDS011;14279;50.010;8.260;2023-06-10T13:48:56;4.73;;;3.80;;
26656;SDS011;14279;50.010;8.260;2023-06-10T13:51:21;4.20;;;3.73;;
26656;SDS011;14279;50.010;8.260;2023-06-10T13:53:46;8.10;;;4.33;;
26656;SDS011;14279;50.010;8.260;2023-06-10T13:56:12;4.30;;;3.77;;
26656;SDS011;14279;50.010;8.260;2023-06-10T13:58:37;8.13;;;3.70;;
26656;SDS011;14279;50.010;8.260;2023-06-10T14:01:05;4.77;;;3.90;;
26656;SDS011;14279;50.010;8.260;2023-06-10T14:03:31;14.67;;;4.00;;
26656;SDS011;14279;50.010;8.260;2023-06-10T14:05:56;8.50;;;3.73;;
26656;SDS011;14279;50.010;8.260;2023-06-10T14:08:21;5.43;;;4.20;;
26656;SDS011;14279;50.010;8.260;2023-06-10T14:10:47;3.70;;;3.30;;
26656;SDS011;14279;50.010;8.260;2023-06-10T14:13:13;7.43;;;3.80;;
26656;SDS011;14279;50.010;8.260;2023-06-10T14:15:38;8.10;;;4.17;;
26656;SDS011;14279;50.010;8.260;2023-06-10T14:18:04;3.63;;;3.13;;
26656;SDS011;14279;50.010;8.260;2023-06-10T14:20:29;7.63;;;4.17;;
26656;SDS011;14279;50.010;8.260;2023-06-10T14:22:56;4.73;;;3.47;;
26656;SDS011;14279;50.010;8.260;2023-06-10T14:25:22;7.67;;;4.37;;
26656;SDS011;14279;50.010;8.260;2023-06-10T14:27:47;9.20;;;4.10;;
26656;SDS011;14279;50.010;8.260;2023-06-10T14:30:12;3.93;;;3.50;;
26656;SDS011;14279;50.010;8.260;2023-06-10T14:32:38;4.70;;;4.10;;
26656;SDS011;14279;50.010;8.260;2023-06-10T14:35:03;6.87;;;4.30;;
26656;SDS011;14279;50.010;8.260;2023-06-10T14:37:29;6.13;;;3.90;;
26656;SDS011;14279;50.010;8.260;2023-06-10T14:39:54;4.10;;;3.30;;
26656;SDS011;14279;50.010;8.260;2023-06-10T14:42:19;9.40;;;3.80;;
26656;SDS011;14279;50.010;8.260;2023-06-10T14:44:44;5.43;;;4.00;;
26656;SDS011;14279;50.010;8.260;2023-06-10T14:47:10;10.50;;;4.67;;
26656;SDS011;14279;50.010;8.260;2023-06-10T14:49:35;8.73;;;4.10;;
26656;SDS011;14279;50.010;8.260;2023-06-10T14:52:00;5.50;;;3.53;;
26656;SDS011;14279;50.010;8.260;2023-06-10T14:54:25;6.70;;;4.10;;